sensor_id;sensor_type;location;lat;lon;timestamp;pressure;altitude;pressure_sealevel;temperature;humidity
40612;BME280;26317;44.894;20.286;2023-01-28T00:02:02;100686.34;;;0.98;100.00
40612;BME280;26317;44.894;20.286;2023-01-28T00:04:33;100673.38;;;0.83;100.00
40612;BME280;26317;44.894;20.286;2023-01-28T00:07:04;100698.53;;;0.92;100.00
40612;BME280;26317;44.894;20.286;2023-01-28T00:09:37;100691.66;;;0.91;100.00
40612;BME280;26317;44.894;20.286;2023-01-28T00:12:08;100684.09;;;0.88;100.00
40612;BME280;26317;44.894;20.286;2023-01-28T00:14:38;100687.16;;;0.99;100.00
40612;BME280;26317;44.894;20.286;2023-01-28T00:17:09;100686.97;;;1.00;100.00
40612;BME280;26317;44.894;20.286;2023-01-28T00:19:40;100662.38;;;0.80;100.00
40612;BME280;26317;44.894;20.286;2023-01-28T00:22:11;100692.03;;;1.02;100.00
40612;BME280;26317;44.894;20.286;2023-01-28T00:24:44;100686.97;;;1.00;100.00
40612;BME280;26317;44.894;20.286;2023-01-28T00:27:15;100681.25;;;0.97;100.00
40612;BME280;26317;44.894;20.286;2023-01-28T00:29:45;100682.28;;;0.96;100.00
40612;BME280;26317;44.894;20.286;2023-01-28T00:32:15;100698.13;;;0.96;100.00
40612;BME280;26317;44.894;20.286;2023-01-28T00:34:46;100674.59;;;0.87;100.00
40612;BME280;26317;44.894;20.286;2023-01-28T00:37:17;100700.16;;;0.93;100.00
40612;BME280;26317;44.894;20.286;2023-01-28T00:39:50;100695.28;;;0.97;100.00
40612;BME280;26317;44.894;20.286;2023-01-28T00:42:22;100703.22;;;1.04;100.00
40612;BME280;26317;44.894;20.286;2023-01-28T00:44:54;100706.06;;;0.96;100.00
40612;BME280;26317;44.894;20.286;2023-01-28T00:47:25;100703.41;;;0.96;100.00
40612;BME280;26317;44.894;20.286;2023-01-28T00:49:55;100705.63;;;0.85;100.00
40612;BME280;26317;44.894;20.286;2023-01-28T00:52:26;100707.47;;;0.85;100.00
40612;BME280;26317;44.894;20.286;2023-01-28T00:54:59;100706.44;;;0.92;100.00
40612;BME280;26317;44.894;20.286;2023-01-28T00:57:30;100713.38;;;1.00;100.00
40612;BME280;26317;44.894;20.286;2023-01-28T01:00:00;100674.56;;;0.81;100.00
40612;BME280;26317;44.894;20.286;2023-01-28T01:02:31;100717.22;;;1.04;100.00
40612;BME280;26317;44.894;20.286;2023-01-28T01:05:01;100715.78;;;1.02;100.00
40612;BME280;26317;44.894;20.286;2023-01-28T01:07:31;100692.84;;;0.89;100.00
40612;BME280;26317;44.894;20.286;2023-01-28T01:10:13;100714.78;;;1.03;100.00
40612;BME280;26317;44.894;20.286;2023-01-28T01:12:45;100671.72;;;0.76;100.00
40612;BME280;26317;44.894;20.286;2023-01-28T01:15:16;100708.28;;;0.99;100.00
40612;BME280;26317;44.894;20.286;2023-01-28T01:17:48;100716.81;;;0.94;100.00
40612;BME280;26317;44.894;20.286;2023-01-28T01:20:20;100714.56;;;0.98;100.00
40612;BME280;26317;44.894;20.286;2023-01-28T01:22:51;100710.13;;;0.91;100.00
40612;BME280;26317;44.894;20.286;2023-01-28T01:25:24;100705.44;;;0.87;100.00
40612;BME280;26317;44.894;20.286;2023-01-28T01:27:55;100709.09;;;0.99;100.00
40612;BME280;26317;44.894;20.286;2023-01-28T01:30:25;100720.88;;;1.10;100.00
40612;BME280;26317;44.894;20.286;2023-01-28T01:32:56;100715.00;;;1.08;100.00
40612;BME280;26317;44.894;20.286;2023-01-28T01:35:27;100713.16;;;1.02;100.00
40612;BME280;26317;44.894;20.286;2023-01-28T01:37:57;100716.00;;;1.00;100.00
40612;BME280;26317;44.894;20.286;2023-01-28T01:40:30;100720.06;;;1.03;100.00
40612;BME280;26317;44.894;20.286;2023-01-28T01:43:00;100721.28;;;1.07;100.00
40612;BME280;26317;44.894;20.286;2023-01-28T01:45:32;100717.63;;;1.08;100.00
40612;BME280;26317;44.894;20.286;2023-01-28T01:48:06;100718.22;;;0.97;100.00
40612;BME280;26317;44.894;20.286;2023-01-28T01:50:47;100720.28;;;0.95;100.00
40612;BME280;26317;44.894;20.286;2023-01-28T01:53:21;100719.25;;;0.96;100.00
40612;BME280;26317;44.894;20.286;2023-01-28T01:55:59;100726.75;;;0.85;100.00
40612;BME280;26317;44.894;20.286;2023-01-28T01:58:35;100710.31;;;0.83;100.00
40612;BME280;26317;44.894;20.286;2023-01-28T02:01:08;100717.41;;;0.96;100.00
40612;BME280;26317;44.894;20.286;2023-01-28T02:03:55;100725.75;;;1.00;100.00
40612;BME280;26317;44.894;20.286;2023-01-28T02:06:30;100721.47;;;1.05;100.00
40612;BME280;26317;44.894;20.286;2023-01-28T02:09:01;100725.75;;;1.06;100.00
40612;BME280;26317;44.894;20.286;2023-01-28T02:11:35;100705.44;;;0.93;100.00
40612;BME280;26317;44.894;20.286;2023-01-28T02:14:06;100720.28;;;0.95;100.00
40612;BME280;26317;44.894;20.286;2023-01-28T02:16:42;100728.38;;;1.06;100.00
40612;BME280;26317;44.894;20.286;2023-01-28T02:19:14;100724.75;;;1.07;100.00
40612;BME280;26317;44.894;20.286;2023-01-28T02:22:00;100700.97;;;0.94;100.00
40612;BME280;26317;44.894;20.286;2023-01-28T02:24:52;100738.56;;;1.03;100.00
40612;BME280;26317;44.894;20.286;2023-01-28T02:27:29;100730.84;;;1.08;100.00
40612;BME280;26317;44.894;20.286;2023-01-28T02:30:07;100672.16;;;0.66;100.00
40612;BME280;26317;44.894;20.286;2023-01-28T02:32:43;100742.63;;;1.12;100.00
40612;BME280;26317;44.894;20.286;2023-01-28T02:35:23;100722.69;;;1.09;100.00
40612;BME280;26317;44.894;20.286;2023-01-28T02:38:00;100739.34;;;1.23;100.00
40612;BME280;26317;44.894;20.286;2023-01-28T02:40:35;100743.00;;;1.28;100.00
40612;BME280;26317;44.894;20.286;2023-01-28T02:43:30;100692.22;;;0.93;100.00
40612;BME280;26317;44.894;20.286;2023-01-28T02:46:15;100739.34;;;1.23;100.00
40612;BME280;26317;44.894;20.286;2023-01-28T02:49:00;100732.84;;;1.25;100.00
40612;BME280;26317;44.894;20.286;2023-01-28T02:51:38;100733.47;;;1.08;100.00
40612;BME280;26317;44.894;20.286;2023-01-28T02:54:20;100733.47;;;1.14;100.00
40612;BME280;26317;44.894;20.286;2023-01-28T02:56:55;100719.25;;;1.02;100.00
40612;BME280;26317;44.894;20.286;2023-01-28T02:59:35;100731.84;;;1.07;100.00
40612;BME280;26317;44.894;20.286;2023-01-28T03:02:20;100703.00;;;0.85;100.00
40612;BME280;26317;44.894;20.286;2023-01-28T03:04:56;100746.06;;;1.19;100.00
40612;BME280;26317;44.894;20.286;2023-01-28T03:07:29;100740.34;;;1.09;100.00
40612;BME280;26317;44.894;20.286;2023-01-28T03:10:03;100733.28;;;1.03;100.00
40612;BME280;26317;44.894;20.286;2023-01-28T03:12:33;100740.34;;;1.09;100.00
40612;BME280;26317;44.894;20.286;2023-01-28T03:15:20;100706.66;;;0.84;100.00
40612;BME280;26317;44.894;20.286;2023-01-28T03:18:09;100737.94;;;1.20;100.00
40612;BME280;26317;44.894;20.286;2023-01-28T03:20:56;100726.16;;;1.10;100.00
40612;BME280;26317;44.894;20.286;2023-01-28T03:23:47;100735.50;;;1.19;100.00
40612;BME280;26317;44.894;20.286;2023-01-28T03:26:34;100730.84;;;1.21;100.00
40612;BME280;26317;44.894;20.286;2023-01-28T03:29:20;100733.47;;;1.21;100.00
40612;BME280;26317;44.894;20.286;2023-01-28T03:32:10;100736.72;;;1.23;100.00
40612;BME280;26317;44.894;20.286;2023-01-28T03:34:57;100740.16;;;1.30;100.00
40612;BME280;26317;44.894;20.286;2023-01-28T03:37:40;100747.47;;;1.28;100.00
40612;BME280;26317;44.894;20.286;2023-01-28T03:40:16;100718.63;;;1.20;100.00
40612;BME280;26317;44.894;20.286;2023-01-28T03:42:47;100741.34;;;1.34;100.00
40612;BME280;26317;44.894;20.286;2023-01-28T03:45:47;100734.66;;;1.31;100.00
40612;BME280;26317;44.894;20.286;2023-01-28T03:48:21;100729.00;;;1.28;100.00
40612;BME280;26317;44.894;20.286;2023-01-28T03:50:55;100720.03;;;1.22;100.00
40612;BME280;26317;44.894;20.286;2023-01-28T03:53:28;100732.44;;;1.28;100.00
40612;BME280;26317;44.894;20.286;2023-01-28T03:55:59;100731.00;;;1.26;100.00
40612;BME280;26317;44.894;20.286;2023-01-28T03:58:29;100743.00;;;1.35;100.00
40612;BME280;26317;44.894;20.286;2023-01-28T04:01:13;100736.50;;;1.24;100.00
40612;BME280;26317;44.894;20.286;2023-01-28T04:03:43;100741.41;;;1.21;100.00
40612;BME280;26317;44.894;20.286;2023-01-28T04:06:22;100737.72;;;1.22;100.00
40612;BME280;26317;44.894;20.286;2023-01-28T04:09:18;100737.91;;;1.27;100.00
40612;BME280;26317;44.894;20.286;2023-01-28T04:12:01;100743.22;;;1.27;100.00
40612;BME280;26317;44.894;20.286;2023-01-28T04:14:37;100724.94;;;1.19;100.00
40612;BME280;26317;44.894;20.286;2023-01-28T04:17:12;100746.84;;;1.26;100.00
40612;BME280;26317;44.894;20.286;2023-01-28T04:19:45;100747.69;;;1.20;100.00
40612;BME280;26317;44.894;20.286;2023-01-28T04:22:18;100721.47;;;1.05;100.00
40612;BME280;26317;44.894;20.286;2023-01-28T04:24:50;100753.38;;;1.17;100.00
40612;BME280;26317;44.894;20.286;2023-01-28T04:27:20;100757.84;;;1.16;100.00
40612;BME280;26317;44.894;20.286;2023-01-28T04:29:50;100744.66;;;1.16;100.00
40612;BME280;26317;44.894;20.286;2023-01-28T04:32:36;100739.56;;;1.15;100.00
40612;BME280;26317;44.894;20.286;2023-01-28T04:35:30;100765.97;;;1.34;100.00
40612;BME280;26317;44.894;20.286;2023-01-28T04:38:22;100775.94;;;1.32;100.00
40612;BME280;26317;44.894;20.286;2023-01-28T04:41:11;100774.50;;;1.36;100.00
40612;BME280;26317;44.894;20.286;2023-01-28T04:43:41;100776.75;;;1.33;100.00
40612;BME280;26317;44.894;20.286;2023-01-28T04:46:30;100773.72;;;1.29;100.00
40612;BME280;26317;44.894;20.286;2023-01-28T04:49:15;100771.88;;;1.36;100.00
40612;BME280;26317;44.894;20.286;2023-01-28T04:52:10;100772.25;;;1.40;100.00
40612;BME280;26317;44.894;20.286;2023-01-28T04:55:04;100779.38;;;1.46;100.00
40612;BME280;26317;44.894;20.286;2023-01-28T04:57:34;100767.78;;;1.41;100.00
40612;BME280;26317;44.894;20.286;2023-01-28T05:00:08;100731.00;;;1.13;100.00
40612;BME280;26317;44.894;20.286;2023-01-28T05:02:38;100785.88;;;1.44;100.00
40612;BME280;26317;44.894;20.286;2023-01-28T05:05:09;100790.56;;;1.42;100.00
40612;BME280;26317;44.894;20.286;2023-01-28T05:07:57;100789.75;;;1.41;100.00
40612;BME280;26317;44.894;20.286;2023-01-28T05:10:31;100796.03;;;1.40;100.00
40612;BME280;26317;44.894;20.286;2023-01-28T05:13:02;100803.38;;;1.31;100.00
40612;BME280;26317;44.894;20.286;2023-01-28T05:15:32;100797.25;;;1.31;100.00
40612;BME280;26317;44.894;20.286;2023-01-28T05:18:03;100801.72;;;1.30;100.00
40612;BME280;26317;44.894;20.286;2023-01-28T05:20:39;100804.16;;;1.38;100.00
40612;BME280;26317;44.894;20.286;2023-01-28T05:23:10;100795.41;;;1.38;100.00
40612;BME280;26317;44.894;20.286;2023-01-28T05:25:58;100798.91;;;1.45;100.00
40612;BME280;26317;44.894;20.286;2023-01-28T05:28:28;100806.19;;;1.43;100.00
40612;BME280;26317;44.894;20.286;2023-01-28T05:31:01;100802.75;;;1.49;100.00
40612;BME280;26317;44.894;20.286;2023-01-28T05:33:31;100797.69;;;1.41;100.00
40612;BME280;26317;44.894;20.286;2023-01-28T05:36:05;100802.75;;;1.43;100.00
40612;BME280;26317;44.894;20.286;2023-01-28T05:38:36;100799.50;;;1.41;100.00
40612;BME280;26317;44.894;20.286;2023-01-28T05:41:10;100789.34;;;1.31;100.00
40612;BME280;26317;44.894;20.286;2023-01-28T05:43:42;100804.56;;;1.42;100.00
40612;BME280;26317;44.894;20.286;2023-01-28T05:46:45;100818.41;;;1.44;100.00
40612;BME280;26317;44.894;20.286;2023-01-28T05:49:35;100773.69;;;1.10;100.00
40612;BME280;26317;44.894;20.286;2023-01-28T05:52:44;100814.75;;;1.32;100.00
40612;BME280;26317;44.894;20.286;2023-01-28T05:55:24;100820.63;;;1.34;100.00
40612;BME280;26317;44.894;20.286;2023-01-28T05:57:57;100817.00;;;1.28;100.00
40612;BME280;26317;44.894;20.286;2023-01-28T06:00:28;100795.03;;;1.15;100.00
40612;BME280;26317;44.894;20.286;2023-01-28T06:03:01;100831.41;;;1.32;100.00
40612;BME280;26317;44.894;20.286;2023-01-28T06:05:34;100837.72;;;1.25;100.00
40612;BME280;26317;44.894;20.286;2023-01-28T06:08:05;100837.91;;;1.30;100.00
40612;BME280;26317;44.894;20.286;2023-01-28T06:10:38;100832.22;;;1.33;100.00
40612;BME280;26317;44.894;20.286;2023-01-28T06:13:11;100834.06;;;1.32;100.00
40612;BME280;26317;44.894;20.286;2023-01-28T06:15:44;100784.69;;;1.00;100.00
40612;BME280;26317;44.894;20.286;2023-01-28T06:18:23;100845.63;;;1.38;100.00
40612;BME280;26317;44.894;20.286;2023-01-28T06:20:53;100846.44;;;1.32;100.00
40612;BME280;26317;44.894;20.286;2023-01-28T06:23:24;100831.81;;;1.23;100.00
40612;BME280;26317;44.894;20.286;2023-01-28T06:25:55;100852.53;;;1.39;100.00
40612;BME280;26317;44.894;20.286;2023-01-28T06:28:31;100850.53;;;1.41;100.00
40612;BME280;26317;44.894;20.286;2023-01-28T06:31:01;100871.47;;;1.49;100.00
40612;BME280;26317;44.894;20.286;2023-01-28T06:33:31;100864.13;;;1.51;100.00
40612;BME280;26317;44.894;20.286;2023-01-28T06:36:02;100874.53;;;1.46;100.00
40612;BME280;26317;44.894;20.286;2023-01-28T06:38:33;100870.03;;;1.47;100.00
40612;BME280;26317;44.894;20.286;2023-01-28T06:41:03;100855.81;;;1.41;100.00
40612;BME280;26317;44.894;20.286;2023-01-28T06:43:36;100880.22;;;1.50;100.00
40612;BME280;26317;44.894;20.286;2023-01-28T06:46:06;100839.53;;;1.31;100.00
40612;BME280;26317;44.894;20.286;2023-01-28T06:48:37;100879.19;;;1.57;100.00
40612;BME280;26317;44.894;20.286;2023-01-28T06:51:07;100896.06;;;1.56;100.00
40612;BME280;26317;44.894;20.286;2023-01-28T06:53:37;100879.78;;;1.53;100.00
40612;BME280;26317;44.894;20.286;2023-01-28T06:56:10;100885.69;;;1.61;100.00
40612;BME280;26317;44.894;20.286;2023-01-28T06:58:43;100871.25;;;1.51;100.00
40612;BME280;26317;44.894;20.286;2023-01-28T07:01:13;100897.28;;;1.60;100.00
40612;BME280;26317;44.894;20.286;2023-01-28T07:03:43;100902.16;;;1.63;100.00
40612;BME280;26317;44.894;20.286;2023-01-28T07:06:14;100902.16;;;1.63;100.00
40612;BME280;26317;44.894;20.286;2023-01-28T07:08:44;100893.63;;;1.61;100.00
40612;BME280;26317;44.894;20.286;2023-01-28T07:11:15;100907.44;;;1.63;100.00
40612;BME280;26317;44.894;20.286;2023-01-28T07:13:48;100902.16;;;1.63;100.00
40612;BME280;26317;44.894;20.286;2023-01-28T07:16:18;100912.94;;;1.62;100.00
40612;BME280;26317;44.894;20.286;2023-01-28T07:18:48;100900.75;;;1.54;100.00
40612;BME280;26317;44.894;20.286;2023-01-28T07:21:19;100902.97;;;1.51;100.00
40612;BME280;26317;44.894;20.286;2023-01-28T07:23:49;100919.25;;;1.54;100.00
40612;BME280;26317;44.894;20.286;2023-01-28T07:26:19;100915.59;;;1.62;100.00
40612;BME280;26317;44.894;20.286;2023-01-28T07:28:53;100915.59;;;1.62;100.00
40612;BME280;26317;44.894;20.286;2023-01-28T07:31:23;100921.06;;;1.60;100.00
40612;BME280;26317;44.894;20.286;2023-01-28T07:33:55;100918.44;;;1.60;100.00
40612;BME280;26317;44.894;20.286;2023-01-28T07:36:25;100901.34;;;1.43;100.00
40612;BME280;26317;44.894;20.286;2023-01-28T07:38:55;100929.00;;;1.60;100.00
40612;BME280;26317;44.894;20.286;2023-01-28T07:41:26;100942.03;;;1.62;100.00
40612;BME280;26317;44.894;20.286;2023-01-28T07:44:06;100917.41;;;1.48;100.00
40612;BME280;26317;44.894;20.286;2023-01-28T07:46:36;100943.03;;;1.67;100.00
40612;BME280;26317;44.894;20.286;2023-01-28T07:49:06;100947.91;;;1.64;100.00
40612;BME280;26317;44.894;20.286;2023-01-28T07:51:37;100942.22;;;1.60;100.00
40612;BME280;26317;44.894;20.286;2023-01-28T07:54:07;100957.28;;;1.66;100.00
40612;BME280;26317;44.894;20.286;2023-01-28T07:56:38;100949.34;;;1.66;100.00
40612;BME280;26317;44.894;20.286;2023-01-28T07:59:10;100957.47;;;1.71;100.00
40612;BME280;26317;44.894;20.286;2023-01-28T08:01:41;100963.56;;;1.72;100.00
40612;BME280;26317;44.894;20.286;2023-01-28T08:04:11;100954.03;;;1.77;100.00
40612;BME280;26317;44.894;20.286;2023-01-28T08:06:41;100964.00;;;1.82;100.00
40612;BME280;26317;44.894;20.286;2023-01-28T08:09:12;100918.63;;;1.52;100.00
40612;BME280;26317;44.894;20.286;2023-01-28T08:11:42;100956.25;;;1.80;100.00
40612;BME280;26317;44.894;20.286;2023-01-28T08:14:15;100931.66;;;1.60;100.00
40612;BME280;26317;44.894;20.286;2023-01-28T08:16:45;100968.47;;;1.81;100.00
40612;BME280;26317;44.894;20.286;2023-01-28T08:19:15;100963.38;;;1.73;100.00
40612;BME280;26317;44.894;20.286;2023-01-28T08:21:47;100955.84;;;1.77;100.00
40612;BME280;26317;44.894;20.286;2023-01-28T08:24:18;100968.47;;;1.81;100.00
40612;BME280;26317;44.894;20.286;2023-01-28T08:26:48;100964.00;;;1.82;100.00
40612;BME280;26317;44.894;20.286;2023-01-28T08:29:21;100969.88;;;1.84;100.00
40612;BME280;26317;44.894;20.286;2023-01-28T08:31:51;100976.00;;;1.91;100.00
40612;BME280;26317;44.894;20.286;2023-01-28T08:34:21;100975.78;;;1.93;100.00
40612;BME280;26317;44.894;20.286;2023-01-28T08:36:54;100967.66;;;1.74;100.00
40612;BME280;26317;44.894;20.286;2023-01-28T08:39:25;100966.84;;;1.80;100.00
40612;BME280;26317;44.894;20.286;2023-01-28T08:41:55;100979.84;;;1.69;100.00
40612;BME280;26317;44.894;20.286;2023-01-28T08:44:27;100984.75;;;1.78;100.00
40612;BME280;26317;44.894;20.286;2023-01-28T08:46:58;100981.69;;;1.81;100.00
40612;BME280;26317;44.894;20.286;2023-01-28T08:49:28;100965.81;;;1.68;100.00
40612;BME280;26317;44.894;20.286;2023-01-28T08:51:58;100982.69;;;1.80;100.00
40612;BME280;26317;44.894;20.286;2023-01-28T08:54:29;100971.72;;;1.77;100.00
40612;BME280;26317;44.894;20.286;2023-01-28T08:56:59;100982.69;;;1.80;100.00
40612;BME280;26317;44.894;20.286;2023-01-28T08:59:32;100977.03;;;1.70;100.00
40612;BME280;26317;44.894;20.286;2023-01-28T09:02:02;100984.94;;;1.77;100.00
40612;BME280;26317;44.894;20.286;2023-01-28T09:04:32;100985.53;;;1.72;100.00
40612;BME280;26317;44.894;20.286;2023-01-28T09:07:02;100952.16;;;1.52;100.00
40612;BME280;26317;44.894;20.286;2023-01-28T09:09:32;100991.25;;;1.76;100.00
40612;BME280;26317;44.894;20.286;2023-01-28T09:12:03;100991.25;;;1.82;100.00
40612;BME280;26317;44.894;20.286;2023-01-28T09:14:37;100978.22;;;1.68;100.00
40612;BME280;26317;44.894;20.286;2023-01-28T09:17:07;100988.81;;;1.81;100.00
40612;BME280;26317;44.894;20.286;2023-01-28T09:19:37;100991.66;;;1.66;100.00
40612;BME280;26317;44.894;20.286;2023-01-28T09:22:08;101003.84;;;1.67;100.00
40612;BME280;26317;44.894;20.286;2023-01-28T09:24:38;101012.78;;;1.53;100.00
40612;BME280;26317;44.894;20.286;2023-01-28T09:27:10;101007.06;;;1.56;100.00
40612;BME280;26317;44.894;20.286;2023-01-28T09:29:43;101006.25;;;1.56;100.00
40612;BME280;26317;44.894;20.286;2023-01-28T09:32:13;100985.91;;;1.36;100.00
40612;BME280;26317;44.894;20.286;2023-01-28T09:34:43;101005.47;;;1.62;100.00
40612;BME280;26317;44.894;20.286;2023-01-28T09:37:13;101000.34;;;1.47;100.00
40612;BME280;26317;44.894;20.286;2023-01-28T09:39:49;101008.91;;;1.49;100.00
40612;BME280;26317;44.894;20.286;2023-01-28T09:42:41;101010.91;;;1.47;100.00
40612;BME280;26317;44.894;20.286;2023-01-28T09:45:22;101006.25;;;1.49;100.00
40612;BME280;26317;44.894;20.286;2023-01-28T09:47:55;100995.69;;;1.49;100.00
40612;BME280;26317;44.894;20.286;2023-01-28T09:50:30;101005.25;;;1.50;100.00
40612;BME280;26317;44.894;20.286;2023-01-28T09:53:04;101000.34;;;1.47;100.00
40612;BME280;26317;44.894;20.286;2023-01-28T09:55:37;101002.16;;;1.47;100.00
40612;BME280;26317;44.894;20.286;2023-01-28T09:58:11;101009.91;;;1.48;100.00
40612;BME280;26317;44.894;20.286;2023-01-28T10:00:52;101006.25;;;1.49;100.00
40612;BME280;26317;44.894;20.286;2023-01-28T10:03:36;100984.47;;;1.41;100.00
40612;BME280;26317;44.894;20.286;2023-01-28T10:06:25;100999.78;;;1.58;100.00
40612;BME280;26317;44.894;20.286;2023-01-28T10:09:17;101002.22;;;1.66;100.00
40612;BME280;26317;44.894;20.286;2023-01-28T10:12:01;101012.41;;;1.63;100.00
40612;BME280;26317;44.894;20.286;2023-01-28T10:14:44;101011.75;;;1.61;100.00
40612;BME280;26317;44.894;20.286;2023-01-28T10:17:22;101003.84;;;1.67;100.00
40612;BME280;26317;44.894;20.286;2023-01-28T10:19:58;101006.28;;;1.69;100.00
40612;BME280;26317;44.894;20.286;2023-01-28T10:22:37;100979.81;;;1.56;100.00
40612;BME280;26317;44.894;20.286;2023-01-28T10:25:17;100997.13;;;1.71;100.00
40612;BME280;26317;44.894;20.286;2023-01-28T10:27:49;100999.41;;;1.74;100.00
40612;BME280;26317;44.894;20.286;2023-01-28T10:30:23;100976.59;;;1.60;100.00
40612;BME280;26317;44.894;20.286;2023-01-28T10:33:03;100989.00;;;1.66;100.00
40612;BME280;26317;44.894;20.286;2023-01-28T10:35:38;100967.22;;;1.51;100.00
40612;BME280;26317;44.894;20.286;2023-01-28T10:38:13;101000.63;;;1.78;100.00
40612;BME280;26317;44.894;20.286;2023-01-28T10:40:44;100982.31;;;1.70;100.00
40612;BME280;26317;44.894;20.286;2023-01-28T10:43:16;101000.41;;;1.80;100.00
40612;BME280;26317;44.894;20.286;2023-01-28T10:45:54;100996.56;;;1.82;100.00
40612;BME280;26317;44.894;20.286;2023-01-28T10:48:32;101004.88;;;1.86;100.00
40612;BME280;26317;44.894;20.286;2023-01-28T10:51:04;100968.47;;;1.68;100.00
40612;BME280;26317;44.894;20.286;2023-01-28T10:53:35;100997.16;;;1.91;100.00
40612;BME280;26317;44.894;20.286;2023-01-28T10:56:08;101004.69;;;2.01;100.00
40612;BME280;26317;44.894;20.286;2023-01-28T10:58:49;101001.84;;;2.09;100.00
40612;BME280;26317;44.894;20.286;2023-01-28T11:01:24;100986.78;;;2.03;100.00
40612;BME280;26317;44.894;20.286;2023-01-28T11:03:58;101001.66;;;2.10;100.00
40612;BME280;26317;44.894;20.286;2023-01-28T11:06:28;101002.03;;;2.01;100.00
40612;BME280;26317;44.894;20.286;2023-01-28T11:09:27;101001.44;;;1.99;100.00
40612;BME280;26317;44.894;20.286;2023-01-28T11:12:10;101003.06;;;2.06;100.00
40612;BME280;26317;44.894;20.286;2023-01-28T11:14:49;101001.63;;;1.97;100.00
40612;BME280;26317;44.894;20.286;2023-01-28T11:17:22;100996.56;;;1.96;100.00
40612;BME280;26317;44.894;20.286;2023-01-28T11:19:57;100998.59;;;2.00;100.00
40612;BME280;26317;44.894;20.286;2023-01-28T11:22:32;101003.47;;;1.97;100.00
40612;BME280;26317;44.894;20.286;2023-01-28T11:25:12;101003.91;;;2.00;100.00
40612;BME280;26317;44.894;20.286;2023-01-28T11:27:50;100997.16;;;1.98;100.00
40612;BME280;26317;44.894;20.286;2023-01-28T11:30:23;101002.44;;;1.98;100.00
40612;BME280;26317;44.894;20.286;2023-01-28T11:32:56;100971.75;;;1.83;100.00
40612;BME280;26317;44.894;20.286;2023-01-28T11:35:30;101001.03;;;2.02;100.00
40612;BME280;26317;44.894;20.286;2023-01-28T11:38:00;101001.03;;;2.02;100.00
40612;BME280;26317;44.894;20.286;2023-01-28T11:40:30;100995.53;;;2.10;100.00
40612;BME280;26317;44.894;20.286;2023-01-28T11:43:00;100992.06;;;2.09;100.00
40612;BME280;26317;44.894;20.286;2023-01-28T11:45:37;100966.25;;;1.92;100.00
40612;BME280;26317;44.894;20.286;2023-01-28T11:48:18;100992.09;;;2.16;100.00
40612;BME280;26317;44.894;20.286;2023-01-28T11:51:00;101001.66;;;2.23;100.00
40612;BME280;26317;44.894;20.286;2023-01-28T11:53:55;100996.75;;;2.34;100.00
40612;BME280;26317;44.894;20.286;2023-01-28T11:56:45;101001.84;;;2.28;100.00
40612;BME280;26317;44.894;20.286;2023-01-28T11:59:41;100998.59;;;2.33;100.00
40612;BME280;26317;44.894;20.286;2023-01-28T12:02:30;101003.25;;;2.31;100.00
40612;BME280;26317;44.894;20.286;2023-01-28T12:05:28;100959.94;;;2.12;100.00
40612;BME280;26317;44.894;20.286;2023-01-28T12:08:10;100993.50;;;2.25;100.00
40612;BME280;26317;44.894;20.286;2023-01-28T12:10:47;101000.00;;;2.22;100.00
40612;BME280;26317;44.894;20.286;2023-01-28T12:13:36;101006.94;;;2.23;100.00
40612;BME280;26317;44.894;20.286;2023-01-28T12:16:17;100998.19;;;2.23;100.00
40612;BME280;26317;44.894;20.286;2023-01-28T12:19:11;101011.00;;;2.26;100.00
40612;BME280;26317;44.894;20.286;2023-01-28T12:21:56;101007.13;;;2.22;100.00
40612;BME280;26317;44.894;20.286;2023-01-28T12:24:43;101006.31;;;2.15;100.00
40612;BME280;26317;44.894;20.286;2023-01-28T12:27:27;101004.69;;;2.14;100.00
40612;BME280;26317;44.894;20.286;2023-01-28T12:30:06;101007.53;;;2.06;100.00
40612;BME280;26317;44.894;20.286;2023-01-28T12:32:53;100997.38;;;2.03;100.00
40612;BME280;26317;44.894;20.286;2023-01-28T12:35:34;101001.03;;;2.02;100.00
40612;BME280;26317;44.894;20.286;2023-01-28T12:38:14;101009.59;;;2.17;100.00
40612;BME280;26317;44.894;20.286;2023-01-28T12:40:53;100997.16;;;2.11;100.00
40612;BME280;26317;44.894;20.286;2023-01-28T12:43:41;101006.50;;;2.13;100.00
40612;BME280;26317;44.894;20.286;2023-01-28T12:46:17;101006.31;;;2.21;100.00
40612;BME280;26317;44.894;20.286;2023-01-28T12:48:56;101004.72;;;2.20;100.00
40612;BME280;26317;44.894;20.286;2023-01-28T12:51:33;101015.28;;;2.27;100.00
40612;BME280;26317;44.894;20.286;2023-01-28T12:54:14;101002.66;;;2.22;100.00
40612;BME280;26317;44.894;20.286;2023-01-28T12:56:52;101008.75;;;2.10;100.00
40612;BME280;26317;44.894;20.286;2023-01-28T12:59:28;101005.53;;;2.08;100.00
40612;BME280;26317;44.894;20.286;2023-01-28T13:02:17;100976.19;;;1.76;100.00
40612;BME280;26317;44.894;20.286;2023-01-28T13:04:55;101018.94;;;2.00;100.00
40612;BME280;26317;44.894;20.286;2023-01-28T13:07:32;101021.00;;;2.04;100.00
40612;BME280;26317;44.894;20.286;2023-01-28T13:10:08;101023.19;;;2.01;100.00
40612;BME280;26317;44.894;20.286;2023-01-28T13:12:44;101033.78;;;2.01;100.00
40612;BME280;26317;44.894;20.286;2023-01-28T13:15:17;101031.97;;;2.08;100.00
40612;BME280;26317;44.894;20.286;2023-01-28T13:17:55;101034.81;;;2.06;100.00
40612;BME280;26317;44.894;20.286;2023-01-28T13:20:35;101025.47;;;2.04;100.00
40612;BME280;26317;44.894;20.286;2023-01-28T13:23:21;101027.06;;;1.98;100.00
40612;BME280;26317;44.894;20.286;2023-01-28T13:25:53;101030.53;;;1.85;100.00